sensor_id;sensor_type;location;lat;lon;timestamp;pressure;altitude;pressure_sealevel;temperature;humidity
25759;BME280;13604;52.496;13.456;2023-02-11T00:00:28;102541.88;;;1.15;84.81
25759;BME280;13604;52.496;13.456;2023-02-11T00:02:54;102521.09;;;1.04;84.71
25759;BME280;13604;52.496;13.456;2023-02-11T00:05:19;102556.72;;;1.17;84.40
25759;BME280;13604;52.496;13.456;2023-02-11T00:07:44;102535.06;;;1.22;84.00
25759;BME280;13604;52.496;13.456;2023-02-11T00:10:10;102543.09;;;1.25;83.88
25759;BME280;13604;52.496;13.456;2023-02-11T00:12:36;102558.31;;;1.24;84.31
25759;BME280;13604;52.496;13.456;2023-02-11T00:15:01;102539.75;;;1.10;84.56
25759;BME280;13604;52.496;13.456;2023-02-11T00:17:27;102569.75;;;1.19;84.10
25759;BME280;13604;52.496;13.456;2023-02-11T00:19:52;102572.13;;;1.17;84.31
25759;BME280;13604;52.496;13.456;2023-02-11T00:22:18;102575.78;;;1.19;84.28
25759;BME280;13604;52.496;13.456;2023-02-11T00:24:43;102557.00;;;1.04;84.71
25759;BME280;13604;52.496;13.456;2023-02-11T00:27:08;102576.84;;;1.21;84.72
25759;BME280;13604;52.496;13.456;2023-02-11T00:29:35;102558.06;;;1.14;84.24
25759;BME280;13604;52.496;13.456;2023-02-11T00:32:00;102558.16;;;1.22;84.50
25759;BME280;13604;52.496;13.456;2023-02-11T00:34:32;102530.38;;;1.11;83.97
25759;BME280;13604;52.496;13.456;2023-02-11T00:36:58;102531.41;;;1.20;83.94
25759;BME280;13604;52.496;13.456;2023-02-11T00:39:23;102531.41;;;1.20;83.91
25759;BME280;13604;52.496;13.456;2023-02-11T00:41:49;102535.56;;;1.27;84.19
25759;BME280;13604;52.496;13.456;2023-02-11T00:44:14;102532.03;;;1.34;83.72
25759;BME280;13604;52.496;13.456;2023-02-11T00:46:39;102535.28;;;1.40;83.89
25759;BME280;13604;52.496;13.456;2023-02-11T00:49:05;102529.72;;;1.44;83.52
25759;BME280;13604;52.496;13.456;2023-02-11T00:51:30;102552.19;;;1.54;83.23
25759;BME280;13604;52.496;13.456;2023-02-11T00:53:55;102555.44;;;1.60;83.15
25759;BME280;13604;52.496;13.456;2023-02-11T00:56:21;102537.19;;;1.50;83.56
25759;BME280;13604;52.496;13.456;2023-02-11T00:58:46;102527.66;;;1.49;83.31
25759;BME280;13604;52.496;13.456;2023-02-11T01:01:12;102553.22;;;1.63;82.94
25759;BME280;13604;52.496;13.456;2023-02-11T01:03:37;102545.25;;;1.69;82.73
25759;BME280;13604;52.496;13.456;2023-02-11T01:06:04;102550.91;;;1.73;82.32
25759;BME280;13604;52.496;13.456;2023-02-11T01:08:30;102522.47;;;1.72;82.62
25759;BME280;13604;52.496;13.456;2023-02-11T01:10:58;102512.59;;;1.68;83.00
25759;BME280;13604;52.496;13.456;2023-02-11T01:13:25;102491.47;;;1.54;83.46
25759;BME280;13604;52.496;13.456;2023-02-11T01:15:50;102493.97;;;1.61;83.77
25759;BME280;13604;52.496;13.456;2023-02-11T01:18:15;102462.88;;;1.51;83.82
25759;BME280;13604;52.496;13.456;2023-02-11T01:20:41;102467.38;;;1.61;84.28
25759;BME280;13604;52.496;13.456;2023-02-11T01:23:06;102467.88;;;1.65;84.67
25759;BME280;13604;52.496;13.456;2023-02-11T01:25:31;102466.63;;;1.62;84.96
25759;BME280;13604;52.496;13.456;2023-02-11T01:27:57;102466.97;;;1.65;85.39
25759;BME280;13604;52.496;13.456;2023-02-11T01:30:22;102480.72;;;1.65;85.39
25759;BME280;13604;52.496;13.456;2023-02-11T01:32:47;102433.81;;;1.43;85.54
25759;BME280;13604;52.496;13.456;2023-02-11T01:35:13;102466.72;;;1.71;85.12
25759;BME280;13604;52.496;13.456;2023-02-11T01:37:38;102453.84;;;1.71;84.85
25759;BME280;13604;52.496;13.456;2023-02-11T01:40:07;102437.38;;;1.53;84.60
25759;BME280;13604;52.496;13.456;2023-02-11T01:42:32;102443.69;;;1.63;84.45
25759;BME280;13604;52.496;13.456;2023-02-11T01:44:59;102450.63;;;1.80;84.15
25759;BME280;13604;52.496;13.456;2023-02-11T01:47:25;102457.28;;;1.78;84.04
25759;BME280;13604;52.496;13.456;2023-02-11T01:49:55;102435.88;;;1.71;84.04
25759;BME280;13604;52.496;13.456;2023-02-11T01:52:25;102438.72;;;1.81;83.57
25759;BME280;13604;52.496;13.456;2023-02-11T01:54:54;102458.16;;;1.95;83.53
25759;BME280;13604;52.496;13.456;2023-02-11T01:57:41;102455.03;;;1.97;83.56
25759;BME280;13604;52.496;13.456;2023-02-11T02:00:13;102439.78;;;1.83;83.68
25759;BME280;13604;52.496;13.456;2023-02-11T02:02:49;102448.38;;;1.99;83.26
25759;BME280;13604;52.496;13.456;2023-02-11T02:05:25;102455.50;;;2.02;83.16
25759;BME280;13604;52.496;13.456;2023-02-11T02:07:55;102448.72;;;2.02;83.76
25759;BME280;13604;52.496;13.456;2023-02-11T02:10:24;102441.00;;;2.02;84.11
25759;BME280;13604;52.496;13.456;2023-02-11T02:12:50;102429.13;;;2.12;83.41
25759;BME280;13604;52.496;13.456;2023-02-11T02:15:30;102437.94;;;2.14;83.62
25759;BME280;13604;52.496;13.456;2023-02-11T02:18:13;102426.13;;;2.16;83.39
25759;BME280;13604;52.496;13.456;2023-02-11T02:24:02;102427.00;;;2.32;83.55
25759;BME280;13604;52.496;13.456;2023-02-11T02:32:29;102414.69;;;2.46;83.31
25759;BME280;13604;52.496;13.456;2023-02-11T02:35:10;102420.16;;;2.49;83.48
25759;BME280;13604;52.496;13.456;2023-02-11T02:37:47;102421.09;;;2.58;83.41
25759;BME280;13604;52.496;13.456;2023-02-11T02:40:37;102415.94;;;2.58;83.46
25759;BME280;13604;52.496;13.456;2023-02-11T02:43:06;102401.69;;;2.53;83.07
25759;BME280;13604;52.496;13.456;2023-02-11T02:45:33;102407.66;;;2.61;83.52
25759;BME280;13604;52.496;13.456;2023-02-11T02:47:59;102398.00;;;2.67;83.79
25759;BME280;13604;52.496;13.456;2023-02-11T02:50:29;102389.63;;;2.61;83.71
25759;BME280;13604;52.496;13.456;2023-02-11T02:53:12;102381.63;;;2.66;83.38
25759;BME280;13604;52.496;13.456;2023-02-11T02:56:05;102399.09;;;2.78;83.86
25759;BME280;13604;52.496;13.456;2023-02-11T02:58:52;102395.16;;;2.81;83.45
25759;BME280;13604;52.496;13.456;2023-02-11T03:01:38;102366.50;;;2.69;83.39
25759;BME280;13604;52.496;13.456;2023-02-11T03:04:51;102387.75;;;2.84;83.65
25759;BME280;13604;52.496;13.456;2023-02-11T03:10:08;102388.22;;;2.89;83.89
25759;BME280;13604;52.496;13.456;2023-02-11T03:12:35;102351.28;;;2.80;83.72
25759;BME280;13604;52.496;13.456;2023-02-11T03:15:04;102311.56;;;2.60;83.46
25759;BME280;13604;52.496;13.456;2023-02-11T03:17:30;102377.22;;;2.99;83.73
25759;BME280;13604;52.496;13.456;2023-02-11T03:19:58;102378.28;;;3.01;83.64
25759;BME280;13604;52.496;13.456;2023-02-11T03:22:26;102359.94;;;2.89;84.18
25759;BME280;13604;52.496;13.456;2023-02-11T03:24:54;102382.22;;;3.06;83.84
25759;BME280;13604;52.496;13.456;2023-02-11T03:30:25;102361.63;;;3.06;84.07
25759;BME280;13604;52.496;13.456;2023-02-11T03:33:02;102381.78;;;3.10;84.09
25759;BME280;13604;52.496;13.456;2023-02-11T03:35:38;102359.50;;;3.02;84.26
25759;BME280;13604;52.496;13.456;2023-02-11T03:38:20;102372.69;;;3.05;84.01
25759;BME280;13604;52.496;13.456;2023-02-11T03:40:46;102382.84;;;3.03;84.79
25759;BME280;13604;52.496;13.456;2023-02-11T03:43:21;102382.84;;;3.12;84.76
25759;BME280;13604;52.496;13.456;2023-02-11T03:45:48;102384.84;;;3.15;85.05
25759;BME280;13604;52.496;13.456;2023-02-11T03:48:18;102391.03;;;3.17;84.85
25759;BME280;13604;52.496;13.456;2023-02-11T03:50:45;102361.50;;;3.04;85.08
25759;BME280;13604;52.496;13.456;2023-02-11T03:53:13;102374.06;;;3.19;85.14
25759;BME280;13604;52.496;13.456;2023-02-11T03:55:39;102378.81;;;3.23;85.29
25759;BME280;13604;52.496;13.456;2023-02-11T03:58:06;102375.75;;;3.27;85.35
25759;BME280;13604;52.496;13.456;2023-02-11T04:00:34;102365.63;;;3.20;85.14
25759;BME280;13604;52.496;13.456;2023-02-11T04:03:01;102372.88;;;3.24;85.25
25759;BME280;13604;52.496;13.456;2023-02-11T04:05:27;102366.66;;;3.22;85.30
25759;BME280;13604;52.496;13.456;2023-02-11T04:07:52;102377.44;;;3.26;85.38
25759;BME280;13604;52.496;13.456;2023-02-11T04:10:17;102349.22;;;3.10;85.80
25759;BME280;13604;52.496;13.456;2023-02-11T04:12:43;102379.13;;;3.26;86.07
25759;BME280;13604;52.496;13.456;2023-02-11T04:15:08;102364.72;;;3.19;86.37
25759;BME280;13604;52.496;13.456;2023-02-11T04:17:34;102384.69;;;3.30;86.36
25759;BME280;13604;52.496;13.456;2023-02-11T04:19:59;102379.53;;;3.30;86.15
25759;BME280;13604;52.496;13.456;2023-02-11T04:22:24;102367.88;;;3.25;86.92
25759;BME280;13604;52.496;13.456;2023-02-11T04:24:50;102379.28;;;3.36;86.76
25759;BME280;13604;52.496;13.456;2023-02-11T04:27:15;102370.91;;;3.39;86.93
25759;BME280;13604;52.496;13.456;2023-02-11T04:29:40;102346.53;;;3.26;87.02
25759;BME280;13604;52.496;13.456;2023-02-11T04:32:06;102366.41;;;3.36;87.47
25759;BME280;13604;52.496;13.456;2023-02-11T04:34:31;102371.69;;;3.38;87.93
25759;BME280;13604;52.496;13.456;2023-02-11T04:36:56;102359.41;;;3.26;87.78
25759;BME280;13604;52.496;13.456;2023-02-11T04:39:22;102363.50;;;3.33;88.43
25759;BME280;13604;52.496;13.456;2023-02-11T04:41:47;102353.66;;;3.38;87.70
25759;BME280;13604;52.496;13.456;2023-02-11T04:44:12;102326.25;;;3.29;88.15
25759;BME280;13604;52.496;13.456;2023-02-11T04:46:38;102347.47;;;3.44;88.26
25759;BME280;13604;52.496;13.456;2023-02-11T04:49:03;102342.31;;;3.44;88.69
25759;BME280;13604;52.496;13.456;2023-02-11T04:51:28;102340.47;;;3.43;89.19
25759;BME280;13604;52.496;13.456;2023-02-11T04:53:54;102348.69;;;3.39;90.28
25759;BME280;13604;52.496;13.456;2023-02-11T04:56:19;102351.56;;;3.42;90.30
25759;BME280;13604;52.496;13.456;2023-02-11T04:58:44;102322.78;;;3.38;90.30
25759;BME280;13604;52.496;13.456;2023-02-11T05:01:13;102333.22;;;3.39;91.18
25759;BME280;13604;52.496;13.456;2023-02-11T05:03:40;102338.97;;;3.37;91.77
25759;BME280;13604;52.496;13.456;2023-02-11T05:06:05;102318.97;;;3.34;92.00
25759;BME280;13604;52.496;13.456;2023-02-11T05:08:31;102329.88;;;3.40;91.67
25759;BME280;13604;52.496;13.456;2023-02-11T05:10:57;102306.56;;;3.21;92.28
25759;BME280;13604;52.496;13.456;2023-02-11T05:13:23;102317.63;;;3.29;92.64
25759;BME280;13604;52.496;13.456;2023-02-11T05:15:48;102294.88;;;3.16;93.55
25759;BME280;13604;52.496;13.456;2023-02-11T05:18:13;102307.44;;;3.22;93.84
25759;BME280;13604;52.496;13.456;2023-02-11T05:20:40;102317.47;;;3.27;93.93
25759;BME280;13604;52.496;13.456;2023-02-11T05:23:06;102304.75;;;3.29;93.40
25759;BME280;13604;52.496;13.456;2023-02-11T05:25:31;102267.16;;;3.13;93.31
25759;BME280;13604;52.496;13.456;2023-02-11T05:27:56;102260.66;;;3.08;94.13
25759;BME280;13604;52.496;13.456;2023-02-11T05:30:22;102288.53;;;3.30;93.58
25759;BME280;13604;52.496;13.456;2023-02-11T05:32:47;102269.44;;;3.28;93.79
25759;BME280;13604;52.496;13.456;2023-02-11T05:35:12;102266.13;;;3.29;93.61
25759;BME280;13604;52.496;13.456;2023-02-11T05:37:38;102283.69;;;3.33;93.99
25759;BME280;13604;52.496;13.456;2023-02-11T05:40:04;102282.16;;;3.35;94.21
25759;BME280;13604;52.496;13.456;2023-02-11T05:42:29;102259.88;;;3.27;93.68
25759;BME280;13604;52.496;13.456;2023-02-11T05:44:54;102250.69;;;3.29;94.44
25759;BME280;13604;52.496;13.456;2023-02-11T05:47:20;102277.47;;;3.31;94.67
25759;BME280;13604;52.496;13.456;2023-02-11T05:49:46;102259.91;;;3.36;94.91
25759;BME280;13604;52.496;13.456;2023-02-11T05:52:11;102246.13;;;3.26;94.67
25759;BME280;13604;52.496;13.456;2023-02-11T05:54:36;102255.50;;;3.35;95.17
25759;BME280;13604;52.496;13.456;2023-02-11T05:57:02;102248.06;;;3.20;95.95
25759;BME280;13604;52.496;13.456;2023-02-11T05:59:27;102257.31;;;3.18;96.56
25759;BME280;13604;52.496;13.456;2023-02-11T06:01:52;102284.72;;;3.35;96.83
25759;BME280;13604;52.496;13.456;2023-02-11T06:04:18;102273.97;;;3.30;97.22
25759;BME280;13604;52.496;13.456;2023-02-11T06:06:43;102269.88;;;3.41;97.78
25759;BME280;13604;52.496;13.456;2023-02-11T06:09:09;102288.97;;;3.43;98.76
25759;BME280;13604;52.496;13.456;2023-02-11T06:11:34;102289.59;;;3.49;98.46
25759;BME280;13604;52.496;13.456;2023-02-11T06:14:00;102286.25;;;3.50;98.72
25759;BME280;13604;52.496;13.456;2023-02-11T06:16:25;102297.91;;;3.47;99.22
25759;BME280;13604;52.496;13.456;2023-02-11T06:18:50;102280.94;;;3.58;99.14
25759;BME280;13604;52.496;13.456;2023-02-11T06:21:16;102288.34;;;3.63;99.42
25759;BME280;13604;52.496;13.456;2023-02-11T06:23:41;102263.81;;;3.49;98.82
25759;BME280;13604;52.496;13.456;2023-02-11T06:26:08;102277.91;;;3.62;99.50
25759;BME280;13604;52.496;13.456;2023-02-11T06:28:39;102289.72;;;3.68;99.47
25759;BME280;13604;52.496;13.456;2023-02-11T06:31:06;102289.25;;;3.73;99.66
25759;BME280;13604;52.496;13.456;2023-02-11T06:33:33;102264.56;;;3.66;99.52
25759;BME280;13604;52.496;13.456;2023-02-11T06:35:58;102253.66;;;3.60;99.65
25759;BME280;13604;52.496;13.456;2023-02-11T06:38:23;102279.53;;;3.79;100.00
25759;BME280;13604;52.496;13.456;2023-02-11T06:40:49;102242.28;;;3.66;100.00
25759;BME280;13604;52.496;13.456;2023-02-11T06:43:15;102277.13;;;3.80;100.00
25759;BME280;13604;52.496;13.456;2023-02-11T06:45:40;102250.78;;;3.65;100.00
25759;BME280;13604;52.496;13.456;2023-02-11T06:48:05;102272.25;;;3.75;100.00
25759;BME280;13604;52.496;13.456;2023-02-11T06:50:30;102251.06;;;3.68;100.00
25759;BME280;13604;52.496;13.456;2023-02-11T06:52:58;102249.56;;;3.71;100.00
25759;BME280;13604;52.496;13.456;2023-02-11T06:55:23;102271.47;;;3.84;100.00
25759;BME280;13604;52.496;13.456;2023-02-11T06:57:49;102275.13;;;3.78;100.00
25759;BME280;13604;52.496;13.456;2023-02-11T07:00:14;102274.22;;;3.86;100.00
25759;BME280;13604;52.496;13.456;2023-02-11T07:02:40;102275.25;;;3.88;100.00
25759;BME280;13604;52.496;13.456;2023-02-11T07:05:05;102272.69;;;3.88;100.00
25759;BME280;13604;52.496;13.456;2023-02-11T07:07:31;102284.06;;;3.90;100.00
25759;BME280;13604;52.496;13.456;2023-02-11T07:09:56;102266.03;;;3.90;100.00
25759;BME280;13604;52.496;13.456;2023-02-11T07:12:21;102274.97;;;3.94;100.00
25759;BME280;13604;52.496;13.456;2023-02-11T07:14:47;102257.69;;;3.84;100.00
25759;BME280;13604;52.496;13.456;2023-02-11T07:17:12;102255.38;;;3.96;100.00
25759;BME280;13604;52.496;13.456;2023-02-11T07:19:37;102258.25;;;3.99;100.00
25759;BME280;13604;52.496;13.456;2023-02-11T07:22:03;102229.81;;;3.80;100.00
25759;BME280;13604;52.496;13.456;2023-02-11T07:24:28;102251.13;;;3.96;100.00
25759;BME280;13604;52.496;13.456;2023-02-11T07:26:53;102255.84;;;4.00;100.00
25759;BME280;13604;52.496;13.456;2023-02-11T07:29:19;102252.91;;;4.06;100.00
25759;BME280;13604;52.496;13.456;2023-02-11T07:31:44;102245.22;;;3.97;100.00
25759;BME280;13604;52.496;13.456;2023-02-11T07:34:09;102259.91;;;4.07;100.00
25759;BME280;13604;52.496;13.456;2023-02-11T07:36:35;102262.66;;;4.00;100.00
25759;BME280;13604;52.496;13.456;2023-02-11T07:39:00;102233.38;;;3.99;100.00
25759;BME280;13604;52.496;13.456;2023-02-11T07:41:26;102239.75;;;4.03;100.00
25759;BME280;13604;52.496;13.456;2023-02-11T07:43:52;102251.41;;;4.08;100.00
25759;BME280;13604;52.496;13.456;2023-02-11T07:46:20;102247.91;;;4.08;100.00
25759;BME280;13604;52.496;13.456;2023-02-11T07:48:45;102249.44;;;4.05;100.00
25759;BME280;13604;52.496;13.456;2023-02-11T07:51:14;102256.25;;;4.14;100.00
25759;BME280;13604;52.496;13.456;2023-02-11T07:53:39;102223.38;;;4.02;100.00
25759;BME280;13604;52.496;13.456;2023-02-11T07:56:06;102242.88;;;4.18;100.00
25759;BME280;13604;52.496;13.456;2023-02-11T07:58:32;102251.53;;;4.18;100.00
25759;BME280;13604;52.496;13.456;2023-02-11T08:01:05;102238.47;;;4.17;100.00
25759;BME280;13604;52.496;13.456;2023-02-11T08:03:31;102233.47;;;4.18;100.00
25759;BME280;13604;52.496;13.456;2023-02-11T08:05:56;102253.59;;;4.31;100.00
25759;BME280;13604;52.496;13.456;2023-02-11T08:08:24;102247.09;;;4.26;100.00
25759;BME280;13604;52.496;13.456;2023-02-11T08:10:50;102246.16;;;4.26;100.00
25759;BME280;13604;52.496;13.456;2023-02-11T08:13:16;102259.31;;;4.37;100.00
25759;BME280;13604;52.496;13.456;2023-02-11T08:15:42;102268.88;;;4.38;100.00
25759;BME280;13604;52.496;13.456;2023-02-11T08:18:07;102273.09;;;4.47;100.00
25759;BME280;13604;52.496;13.456;2023-02-11T08:20:32;102270.94;;;4.51;100.00
25759;BME280;13604;52.496;13.456;2023-02-11T08:22:58;102273.84;;;4.46;100.00
25759;BME280;13604;52.496;13.456;2023-02-11T08:25:23;102288.06;;;4.59;100.00
25759;BME280;13604;52.496;13.456;2023-02-11T08:27:48;102303.03;;;4.64;100.00
25759;BME280;13604;52.496;13.456;2023-02-11T08:30:13;102295.00;;;4.69;100.00
25759;BME280;13604;52.496;13.456;2023-02-11T08:32:39;102284.97;;;4.72;100.00
25759;BME280;13604;52.496;13.456;2023-02-11T08:35:05;102263.88;;;4.68;100.00
25759;BME280;13604;52.496;13.456;2023-02-11T08:37:32;102279.66;;;4.71;100.00
25759;BME280;13604;52.496;13.456;2023-02-11T08:39:57;102284.59;;;4.78;100.00
25759;BME280;13604;52.496;13.456;2023-02-11T08:42:23;102284.16;;;4.73;100.00
25759;BME280;13604;52.496;13.456;2023-02-11T08:44:48;102288.28;;;4.71;100.00
25759;BME280;13604;52.496;13.456;2023-02-11T08:47:13;102260.09;;;4.64;100.00
25759;BME280;13604;52.496;13.456;2023-02-11T08:49:38;102299.03;;;4.76;100.00
25759;BME280;13604;52.496;13.456;2023-02-11T08:52:06;102284.97;;;4.64;100.00
25759;BME280;13604;52.496;13.456;2023-02-11T08:54:31;102266.78;;;4.62;100.00
25759;BME280;13604;52.496;13.456;2023-02-11T08:56:57;102262.84;;;4.66;100.00
25759;BME280;13604;52.496;13.456;2023-02-11T08:59:22;102243.69;;;4.64;100.00
25759;BME280;13604;52.496;13.456;2023-02-11T09:01:48;102259.16;;;4.72;100.00
25759;BME280;13604;52.496;13.456;2023-02-11T09:04:13;102264.84;;;4.78;100.00
25759;BME280;13604;52.496;13.456;2023-02-11T09:06:39;102261.66;;;4.81;100.00
25759;BME280;13604;52.496;13.456;2023-02-11T09:09:04;102244.69;;;4.74;100.00
25759;BME280;13604;52.496;13.456;2023-02-11T09:11:32;102230.75;;;4.72;100.00
25759;BME280;13604;52.496;13.456;2023-02-11T09:13:58;102276.41;;;4.82;100.00
25759;BME280;13604;52.496;13.456;2023-02-11T09:16:26;102266.81;;;4.81;100.00
25759;BME280;13604;52.496;13.456;2023-02-11T09:18:52;102276.41;;;4.82;100.00
25759;BME280;13604;52.496;13.456;2023-02-11T09:21:19;102284.69;;;4.88;100.00
25759;BME280;13604;52.496;13.456;2023-02-11T09:23:45;102280.25;;;4.96;100.00
25759;BME280;13604;52.496;13.456;2023-02-11T09:26:23;102299.34;;;4.98;100.00
25759;BME280;13604;52.496;13.456;2023-02-11T09:28:48;102302.06;;;5.00;100.00
25759;BME280;13604;52.496;13.456;2023-02-11T09:31:18;102307.38;;;5.01;100.00
25759;BME280;13604;52.496;13.456;2023-02-11T09:33:45;102261.53;;;4.79;100.00
25759;BME280;13604;52.496;13.456;2023-02-11T09:36:19;102286.31;;;4.96;100.00
25759;BME280;13604;52.496;13.456;2023-02-11T09:38:45;102301.47;;;5.02;100.00
25759;BME280;13604;52.496;13.456;2023-02-11T09:43:55;102311.22;;;4.96;100.00
25759;BME280;13604;52.496;13.456;2023-02-11T09:46:23;102310.25;;;5.04;100.00
25759;BME280;13604;52.496;13.456;2023-02-11T09:48:52;102296.31;;;5.02;100.00
25759;BME280;13604;52.496;13.456;2023-02-11T09:51:23;102319.97;;;5.07;100.00
25759;BME280;13604;52.496;13.456;2023-02-11T09:53:57;102317.53;;;5.08;100.00
25759;BME280;13604;52.496;13.456;2023-02-11T09:56:25;102316.56;;;5.16;100.00
25759;BME280;13604;52.496;13.456;2023-02-11T09:58:51;102311.88;;;5.12;100.00
25759;BME280;13604;52.496;13.456;2023-02-11T10:01:39;102336.88;;;5.22;100.00
25759;BME280;13604;52.496;13.456;2023-02-11T10:04:17;102320.66;;;5.14;100.00
25759;BME280;13604;52.496;13.456;2023-02-11T10:06:49;102311.41;;;5.16;100.00
25759;BME280;13604;52.496;13.456;2023-02-11T10:09:36;102319.78;;;5.33;100.00
25759;BME280;13604;52.496;13.456;2023-02-11T10:15:11;102339.81;;;5.35;100.00
25759;BME280;13604;52.496;13.456;2023-02-11T10:17:58;102322.69;;;5.27;100.00
25759;BME280;13604;52.496;13.456;2023-02-11T10:20:38;102341.00;;;5.39;100.00
25759;BME280;13604;52.496;13.456;2023-02-11T10:23:20;102334.03;;;5.38;100.00
25759;BME280;13604;52.496;13.456;2023-02-11T10:25:49;102348.97;;;5.32;100.00
25759;BME280;13604;52.496;13.456;2023-02-11T10:28:19;102322.78;;;5.19;100.00
25759;BME280;13604;52.496;13.456;2023-02-11T10:31:13;102338.41;;;5.20;100.00
25759;BME280;13604;52.496;13.456;2023-02-11T10:34:00;102344.47;;;5.21;100.00
25759;BME280;13604;52.496;13.456;2023-02-11T10:36:36;102333.88;;;5.18;100.00
25759;BME280;13604;52.496;13.456;2023-02-11T10:41:38;102330.28;;;5.34;100.00
25759;BME280;13604;52.496;13.456;2023-02-11T10:44:06;102332.56;;;5.31;100.00
25759;BME280;13604;52.496;13.456;2023-02-11T10:46:34;102325.50;;;5.39;100.00
25759;BME280;13604;52.496;13.456;2023-02-11T10:49:00;102312.44;;;5.38;100.00
25759;BME280;13604;52.496;13.456;2023-02-11T10:51:29;102310.34;;;5.33;100.00
25759;BME280;13604;52.496;13.456;2023-02-11T10:56:34;102320.75;;;5.25;100.00
25759;BME280;13604;52.496;13.456;2023-02-11T10:59:04;102307.75;;;5.14;100.00
25759;BME280;13604;52.496;13.456;2023-02-11T11:01:38;102318.88;;;5.32;100.00
25759;BME280;13604;52.496;13.456;2023-02-11T11:04:05;102310.78;;;5.38;100.00
25759;BME280;13604;52.496;13.456;2023-02-11T11:06:31;102298.47;;;5.35;100.00
25759;BME280;13604;52.496;13.456;2023-02-11T11:08:57;102282.16;;;5.26;100.00
25759;BME280;13604;52.496;13.456;2023-02-11T11:11:24;102300.03;;;5.33;100.00
25759;BME280;13604;52.496;13.456;2023-02-11T11:13:56;102300.63;;;5.31;100.00
25759;BME280;13604;52.496;13.456;2023-02-11T11:16:26;102291.84;;;5.29;100.00
25759;BME280;13604;52.496;13.456;2023-02-11T11:21:35;102304.63;;;5.27;100.00
25759;BME280;13604;52.496;13.456;2023-02-11T11:24:17;102285.22;;;5.22;100.00
25759;BME280;13604;52.496;13.456;2023-02-11T11:26:46;102284.47;;;5.23;100.00
25759;BME280;13604;52.496;13.456;2023-02-11T11:29:16;102277.59;;;5.24;100.00
25759;BME280;13604;52.496;13.456;2023-02-11T11:32:03;102289.91;;;5.26;100.00
25759;BME280;13604;52.496;13.456;2023-02-11T11:34:35;102295.84;;;5.25;100.00
25759;BME280;13604;52.496;13.456;2023-02-11T11:37:12;102307.44;;;5.20;100.00
25759;BME280;13604;52.496;13.456;2023-02-11T11:39:39;102285.91;;;5.11;100.00
25759;BME280;13604;52.496;13.456;2023-02-11T11:42:30;102299.16;;;5.24;100.00
25759;BME280;13604;52.496;13.456;2023-02-11T11:45:01;102299.47;;;5.27;100.00
25759;BME280;13604;52.496;13.456;2023-02-11T11:47:47;102308.81;;;5.35;100.00
25759;BME280;13604;52.496;13.456;2023-02-11T11:50:24;102301.84;;;5.34;100.00
25759;BME280;13604;52.496;13.456;2023-02-11T11:53:04;102272.72;;;5.27;100.00
25759;BME280;13604;52.496;13.456;2023-02-11T11:55:43;102285.41;;;5.34;100.00
25759;BME280;13604;52.496;13.456;2023-02-11T11:58:14;102285.69;;;5.37;100.00
25759;BME280;13604;52.496;13.456;2023-02-11T12:01:00;102273.16;;;5.31;100.00
25759;BME280;13604;52.496;13.456;2023-02-11T12:06:44;102287.72;;;5.50;100.00
25759;BME280;13604;52.496;13.456;2023-02-11T12:09:26;102267.28;;;5.43;100.00
25759;BME280;13604;52.496;13.456;2023-02-11T12:12:13;102287.91;;;5.62;100.00
25759;BME280;13604;52.496;13.456;2023-02-11T12:14:48;102293.78;;;5.69;100.00
25759;BME280;13604;52.496;13.456;2023-02-11T12:17:33;102284.47;;;5.71;100.00
25759;BME280;13604;52.496;13.456;2023-02-11T12:20:03;102289.56;;;5.80;100.00
25759;BME280;13604;52.496;13.456;2023-02-11T12:23:06;102272.88;;;5.77;100.00
25759;BME280;13604;52.496;13.456;2023-02-11T12:25:45;102253.47;;;5.71;100.00
25759;BME280;13604;52.496;13.456;2023-02-11T12:28:37;102273.69;;;5.86;100.00
25759;BME280;13604;52.496;13.456;2023-02-11T12:31:25;102264.69;;;5.72;100.00
25759;BME280;13604;52.496;13.456;2023-02-11T12:34:09;102277.41;;;5.79;100.00
25759;BME280;13604;52.496;13.456;2023-02-11T12:37:01;102271.69;;;5.73;100.00
25759;BME280;13604;52.496;13.456;2023-02-11T12:54:32;102295.75;;;6.01;100.00
25759;BME280;13604;52.496;13.456;2023-02-11T12:57:16;102279.41;;;5.92;100.00
25759;BME280;13604;52.496;13.456;2023-02-11T13:02:23;102287.41;;;5.95;100.00
25759;BME280;13604;52.496;13.456;2023-02-11T13:04:53;102303.59;;;5.93;100.00
25759;BME280;13604;52.496;13.456;2023-02-11T13:07:33;102300.09;;;5.92;100.00
25759;BME280;13604;52.496;13.456;2023-02-11T13:10:14;102284.09;;;5.77;100.00
25759;BME280;13604;52.496;13.456;2023-02-11T13:12:44;102293.22;;;5.82;100.00
25759;BME280;13604;52.496;13.456;2023-02-11T13:15:29;102301.22;;;5.85;100.00
25759;BME280;13604;52.496;13.456;2023-02-11T13:18:04;102310.31;;;5.90;100.00
25759;BME280;13604;52.496;13.456;2023-02-11T13:20:50;102307.84;;;5.92;100.00
25759;BME280;13604;52.496;13.456;2023-02-11T13:23:33;102309.97;;;5.96;100.00
25759;BME280;13604;52.496;13.456;2023-02-11T13:26:10;102299.56;;;5.86;100.00
25759;BME280;13604;52.496;13.456;2023-02-11T13:28:43;102306.78;;;5.90;100.00
25759;BME280;13604;52.496;13.456;2023-02-11T13:31:10;102328.41;;;5.90;100.00
25759;BME280;13604;52.496;13.456;2023-02-11T13:33:40;102330.34;;;5.93;100.00
25759;BME280;13604;52.496;13.456;2023-02-11T13:36:17;102332.16;;;5.94;100.00
25759;BME280;13604;52.496;13.456;2023-02-11T13:39:00;102318.41;;;5.85;100.00
25759;BME280;13604;52.496;13.456;2023-02-11T13:41:32;102339.66;;;5.91;100.00
25759;BME280;13604;52.496;13.456;2023-02-11T13:44:25;102339.50;;;5.89;100.00
25759;BME280;13604;52.496;13.456;2023-02-11T13:47:00;102335.50;;;5.93;100.00